Time;durP1;ratioP1;P1;durP2;ratioP2;P2;SDS_P1;SDS_P2;PMS_P1;PMS_P2;Temp;Humidity;BMP_temperature;BMP_pressure;BME280_temperature;BME280_humidity;BME280_pressure;Samples;Min_cycle;Max_cycle;Signal;HPM_P1;HPM_P2
2022/08/02 00:02:23;;;;;;;12.45;5.07;;;;;;;;;;5013507;28;20052;-68
2022/08/02 00:04:49;;;;;;;11.63;5.57;;;;;;;;;;5018156;28;20046;-67
2022/08/02 00:07:16;;;;;;;12.55;5.53;;;;;;;;;;5010054;28;20041;-68
2022/08/02 00:09:43;;;;;;;12.30;5.45;;;;;;;;;;5016739;28;20072;-69
2022/08/02 00:12:10;;;;;;;10.98;5.20;;;;;;;;;;5008955;28;20046;-67
2022/08/02 00:14:36;;;;;;;12.60;5.13;;;;;;;;;;5000485;28;20391;-67
2022/08/02 00:17:04;;;;;;;8.18;4.75;;;;;;;;;;5008180;28;20049;-66
2022/08/02 00:19:30;;;;;;;8.43;4.65;;;;;;;;;;5007785;28;20125;-67
2022/08/02 00:21:55;;;;;;;10.00;4.75;;;;;;;;;;5007249;28;20546;-68
2022/08/02 00:24:21;;;;;;;9.18;4.60;;;;;;;;;;5008421;28;20046;-66
2022/08/02 00:26:47;;;;;;;11.75;4.43;;;;;;;;;;5009771;28;20065;-67
2022/08/02 00:29:13;;;;;;;7.90;4.07;;;;;;;;;;5006154;28;20062;-68
2022/08/02 00:31:39;;;;;;;10.60;4.63;;;;;;;;;;5006238;28;20416;-67
2022/08/02 00:34:05;;;;;;;9.20;5.43;;;;;;;;;;5006262;28;20056;-68
2022/08/02 00:36:31;;;;;;;14.45;5.75;;;;;;;;;;5007028;28;20046;-68
2022/08/02 00:38:57;;;;;;;12.93;6.00;;;;;;;;;;5006400;28;20046;-68
2022/08/02 00:41:23;;;;;;;15.55;6.32;;;;;;;;;;5006369;28;20041;-66
2022/08/02 00:43:50;;;;;;;10.13;5.90;;;;;;;;;;5004294;28;20116;-66
2022/08/02 00:46:17;;;;;;;12.07;5.90;;;;;;;;;;5005190;28;20046;-68
2022/08/02 00:48:43;;;;;;;8.55;5.65;;;;;;;;;;5004996;28;20092;-67
2022/08/02 00:51:10;;;;;;;16.00;6.00;;;;;;;;;;4999648;28;20487;-66
2022/08/02 00:53:37;;;;;;;12.38;5.80;;;;;;;;;;4997888;28;20456;-66
2022/08/02 00:56:03;;;;;;;11.20;6.40;;;;;;;;;;4997719;28;20049;-71
2022/08/02 00:58:29;;;;;;;12.65;6.20;;;;;;;;;;4998358;28;20050;-67
2022/08/02 01:00:56;;;;;;;11.57;5.45;;;;;;;;;;5000821;28;20404;-67
2022/08/02 01:03:23;;;;;;;10.65;5.63;;;;;;;;;;5008073;28;20651;-68
2022/08/02 01:05:49;;;;;;;11.93;5.40;;;;;;;;;;5007291;28;20506;-68
2022/08/02 01:08:16;;;;;;;11.25;5.03;;;;;;;;;;5007028;28;20077;-67
2022/08/02 01:10:41;;;;;;;11.23;5.32;;;;;;;;;;5007388;28;20042;-68
2022/08/02 01:13:07;;;;;;;10.57;5.05;;;;;;;;;;5006152;28;20041;-66
2022/08/02 01:15:39;;;;;;;11.48;5.45;;;;;;;;;;5011962;28;20057;-67
2022/08/02 01:18:12;;;;;;;12.30;5.00;;;;;;;;;;5010845;28;20526;-68
2022/08/02 01:21:07;;;;;;;11.90;4.93;;;;;;;;;;5008421;28;20049;-68
2022/08/02 01:24:01;;;;;;;11.23;4.80;;;;;;;;;;5006720;28;20470;-68
2022/08/02 01:26:40;;;;;;;11.13;5.15;;;;;;;;;;5005383;28;20403;-68
2022/08/02 01:29:33;;;;;;;8.10;4.65;;;;;;;;;;5011185;28;20041;-66
2022/08/02 01:32:11;;;;;;;10.98;4.72;;;;;;;;;;5012258;28;20108;-70
2022/08/02 01:34:42;;;;;;;7.13;4.40;;;;;;;;;;5009266;28;20050;-67
2022/08/02 01:37:14;;;;;;;10.02;4.68;;;;;;;;;;5008105;28;20076;-67
2022/08/02 01:39:43;;;;;;;12.80;4.90;;;;;;;;;;5008679;28;20053;-67
2022/08/02 01:42:11;;;;;;;9.95;4.40;;;;;;;;;;5002495;28;20054;-67
2022/08/02 01:44:40;;;;;;;8.98;4.80;;;;;;;;;;5010005;28;20065;-68
2022/08/02 01:47:13;;;;;;;7.40;4.38;;;;;;;;;;5008746;28;20053;-68
2022/08/02 01:49:41;;;;;;;10.40;4.83;;;;;;;;;;5009116;28;20054;-67
2022/08/02 01:52:24;;;;;;;8.35;4.07;;;;;;;;;;5008897;28;20046;-70
2022/08/02 01:55:17;;;;;;;10.80;4.45;;;;;;;;;;5005984;28;20419;-67
2022/08/02 01:57:52;;;;;;;12.65;4.55;;;;;;;;;;5004410;28;20041;-67
2022/08/02 02:00:21;;;;;;;8.60;4.43;;;;;;;;;;5009597;28;20054;-68
2022/08/02 02:02:49;;;;;;;9.55;5.20;;;;;;;;;;5009939;28;20643;-66
2022/08/02 02:05:18;;;;;;;7.30;4.30;;;;;;;;;;5008490;28;20069;-66
2022/08/02 02:07:48;;;;;;;12.80;4.68;;;;;;;;;;5009351;28;20058;-67
2022/08/02 02:10:17;;;;;;;10.63;4.53;;;;;;;;;;5007528;28;20050;-68
2022/08/02 02:12:47;;;;;;;12.43;4.50;;;;;;;;;;5010093;28;20084;-67
2022/08/02 02:15:13;;;;;;;11.18;4.25;;;;;;;;;;5007655;28;20104;-68
2022/08/02 02:17:44;;;;;;;6.30;3.95;;;;;;;;;;5008132;28;20050;-67
2022/08/02 02:20:15;;;;;;;7.15;3.92;;;;;;;;;;5004848;28;20046;-66
2022/08/02 02:22:42;;;;;;;6.15;4.40;;;;;;;;;;5009339;28;20517;-67
2022/08/02 02:25:09;;;;;;;6.25;4.07;;;;;;;;;;5008123;28;20948;-68
2022/08/02 02:27:36;;;;;;;9.00;4.43;;;;;;;;;;5009099;28;20412;-67
2022/08/02 02:30:04;;;;;;;7.63;4.38;;;;;;;;;;5010334;28;20068;-70
2022/08/02 02:32:31;;;;;;;10.65;4.70;;;;;;;;;;5009257;28;20057;-69
2022/08/02 02:34:58;;;;;;;11.15;4.45;;;;;;;;;;5010157;28;20046;-71
2022/08/02 02:37:26;;;;;;;8.70;4.13;;;;;;;;;;5009771;28;20403;-69
2022/08/02 02:39:54;;;;;;;8.75;4.65;;;;;;;;;;5009740;28;20046;-67
2022/08/02 02:42:27;;;;;;;9.95;4.70;;;;;;;;;;5009212;28;20049;-69
2022/08/02 02:44:54;;;;;;;8.38;4.50;;;;;;;;;;5009640;28;20054;-67
2022/08/02 02:47:21;;;;;;;11.25;5.03;;;;;;;;;;5003682;28;20038;-72
2022/08/02 02:49:49;;;;;;;10.68;5.35;;;;;;;;;;5010470;28;20145;-66
2022/08/02 02:52:16;;;;;;;8.70;4.95;;;;;;;;;;5009059;28;20054;-66
2022/08/02 02:54:45;;;;;;;12.63;4.63;;;;;;;;;;5009526;28;20068;-66
2022/08/02 02:57:12;;;;;;;9.18;4.40;;;;;;;;;;5009262;28;20050;-66
2022/08/02 02:59:39;;;;;;;13.40;5.07;;;;;;;;;;5008415;28;20074;-66
2022/08/02 03:02:05;;;;;;;10.95;5.03;;;;;;;;;;5000668;28;20064;-67
2022/08/02 03:04:32;;;;;;;9.25;4.75;;;;;;;;;;5006694;28;20072;-67
2022/08/02 03:06:59;;;;;;;9.25;4.70;;;;;;;;;;5007789;28;20046;-67
2022/08/02 03:09:26;;;;;;;8.48;4.30;;;;;;;;;;5008165;28;20436;-67
2022/08/02 03:11:53;;;;;;;8.02;4.57;;;;;;;;;;5007003;28;20046;-67
2022/08/02 03:14:20;;;;;;;8.75;4.57;;;;;;;;;;5006344;28;20053;-68
2022/08/02 03:16:51;;;;;;;7.35;4.57;;;;;;;;;;5007693;28;20058;-68
2022/08/02 03:19:19;;;;;;;9.10;4.57;;;;;;;;;;5006430;28;20045;-67
2022/08/02 03:21:46;;;;;;;9.75;5.18;;;;;;;;;;5009359;28;20454;-66
2022/08/02 03:24:13;;;;;;;13.27;5.05;;;;;;;;;;5006332;28;20077;-66
2022/08/02 03:26:39;;;;;;;9.30;4.55;;;;;;;;;;5008379;28;20554;-67
2022/08/02 03:29:06;;;;;;;7.80;4.85;;;;;;;;;;5010733;28;20073;-66
2022/08/02 03:31:31;;;;;;;10.13;4.75;;;;;;;;;;5010080;28;20046;-69
2022/08/02 03:33:58;;;;;;;8.30;4.32;;;;;;;;;;5010302;28;20183;-67
2022/08/02 03:36:27;;;;;;;8.70;4.40;;;;;;;;;;5004592;28;20042;-67
2022/08/02 03:38:54;;;;;;;7.47;4.53;;;;;;;;;;5007712;28;20058;-66
2022/08/02 03:41:21;;;;;;;10.95;4.72;;;;;;;;;;5007182;28;20104;-67
2022/08/02 03:43:49;;;;;;;11.00;4.78;;;;;;;;;;5005416;28;20050;-65
2022/08/02 03:46:18;;;;;;;8.70;4.45;;;;;;;;;;5005225;28;20103;-69
2022/08/02 03:48:44;;;;;;;16.50;4.78;;;;;;;;;;5009643;28;20081;-68
2022/08/02 03:51:11;;;;;;;9.20;4.53;;;;;;;;;;5005046;28;20041;-66
2022/08/02 03:53:37;;;;;;;9.40;4.65;;;;;;;;;;5005936;28;20057;-69
2022/08/02 03:56:04;;;;;;;9.27;4.63;;;;;;;;;;5007572;28;20128;-66
2022/08/02 03:58:30;;;;;;;11.82;4.65;;;;;;;;;;5009353;28;20053;-66
2022/08/02 04:00:57;;;;;;;9.25;4.82;;;;;;;;;;5007848;28;20385;-66
2022/08/02 04:03:23;;;;;;;11.75;4.63;;;;;;;;;;5001231;28;20482;-66
2022/08/02 04:05:50;;;;;;;10.40;4.40;;;;;;;;;;5001126;28;20046;-67
2022/08/02 04:08:15;;;;;;;11.13;4.93;;;;;;;;;;4999804;28;20849;-66
2022/08/02 04:13:32;;;;;;;13.43;4.88;;;;;;;;;;4997910;28;20052;-67
2022/08/02 04:16:06;;;;;;;11.35;5.05;;;;;;;;;;5003142;28;20052;-68
2022/08/02 04:18:38;;;;;;;13.25;5.28;;;;;;;;;;5006315;28;20053;-67
2022/08/02 04:21:06;;;;;;;10.80;4.38;;;;;;;;;;5009323;28;20077;-66
2022/08/02 04:23:35;;;;;;;11.77;4.95;;;;;;;;;;5007838;28;20123;-65
2022/08/02 04:26:03;;;;;;;11.80;4.80;;;;;;;;;;5007866;28;20132;-68
2022/08/02 04:28:30;;;;;;;11.88;5.00;;;;;;;;;;4996213;28;20392;-68
2022/08/02 04:30:57;;;;;;;15.30;5.50;;;;;;;;;;4999107;28;20050;-66
2022/08/02 04:33:24;;;;;;;9.23;4.78;;;;;;;;;;4997343;28;20500;-67
2022/08/02 04:35:50;;;;;;;10.07;5.20;;;;;;;;;;4996120;28;20050;-68
2022/08/02 04:38:16;;;;;;;8.30;4.80;;;;;;;;;;5001490;28;20393;-67
2022/08/02 04:40:53;;;;;;;20.52;5.43;;;;;;;;;;4999972;28;20053;-66
2022/08/02 04:43:19;;;;;;;9.82;4.88;;;;;;;;;;5001201;28;20038;-66
2022/08/02 04:45:53;;;;;;;12.60;5.40;;;;;;;;;;4999848;28;20056;-67
2022/08/02 04:48:20;;;;;;;12.95;5.00;;;;;;;;;;5000423;28;20415;-68
2022/08/02 04:50:46;;;;;;;16.35;5.40;;;;;;;;;;5002660;28;20053;-67
2022/08/02 04:53:12;;;;;;;15.68;4.97;;;;;;;;;;5001673;28;20045;-67
2022/08/02 04:55:38;;;;;;;14.27;5.00;;;;;;;;;;5002086;28;20462;-67
2022/08/02 04:58:04;;;;;;;15.70;5.00;;;;;;;;;;5002447;28;20057;-67
2022/08/02 05:00:31;;;;;;;13.10;4.95;;;;;;;;;;5001413;28;20045;-67
2022/08/02 05:02:58;;;;;;;10.38;5.20;;;;;;;;;;5003205;28;20053;-68
2022/08/02 05:05:24;;;;;;;12.45;5.38;;;;;;;;;;5000209;28;20050;-68
2022/08/02 05:07:51;;;;;;;13.57;5.13;;;;;;;;;;5000280;28;20529;-68
2022/08/02 05:10:17;;;;;;;11.90;5.82;;;;;;;;;;5002090;28;20212;-67
2022/08/02 05:12:43;;;;;;;17.25;5.93;;;;;;;;;;5003467;28;20049;-73
2022/08/02 05:15:11;;;;;;;11.00;5.35;;;;;;;;;;5002481;28;20108;-67
2022/08/02 05:17:37;;;;;;;10.40;5.05;;;;;;;;;;5001375;28;20057;-68
2022/08/02 05:20:06;;;;;;;18.65;5.57;;;;;;;;;;4999003;28;20932;-67
2022/08/02 05:22:31;;;;;;;17.05;5.18;;;;;;;;;;5001755;28;20518;-67
2022/08/02 05:24:57;;;;;;;9.10;5.22;;;;;;;;;;5001684;28;20042;-66
2022/08/02 05:27:23;;;;;;;12.30;5.57;;;;;;;;;;5002422;28;20042;-67
2022/08/02 05:29:50;;;;;;;15.27;5.40;;;;;;;;;;5001651;28;20056;-68
2022/08/02 05:32:17;;;;;;;12.52;5.55;;;;;;;;;;5002397;28;20050;-66
2022/08/02 05:34:43;;;;;;;16.08;5.70;;;;;;;;;;5000635;28;20057;-66
2022/08/02 05:37:09;;;;;;;16.23;5.43;;;;;;;;;;5002863;28;20058;-66
2022/08/02 05:39:35;;;;;;;16.23;5.90;;;;;;;;;;5004367;28;20054;-66
2022/08/02 05:42:01;;;;;;;17.63;5.97;;;;;;;;;;5005098;28;20407;-67
2022/08/02 05:44:26;;;;;;;9.98;5.18;;;;;;;;;;5003374;28;20042;-67
2022/08/02 05:46:52;;;;;;;10.45;5.10;;;;;;;;;;5004697;28;20064;-66
2022/08/02 05:49:18;;;;;;;14.18;5.35;;;;;;;;;;5003815;28;20100;-69
2022/08/02 05:52:25;;;;;;;13.85;5.13;;;;;;;;;;5001861;28;20057;-67
2022/08/02 05:55:07;;;;;;;14.73;5.32;;;;;;;;;;5002145;28;20050;-68
2022/08/02 05:57:46;;;;;;;11.88;5.13;;;;;;;;;;5002629;28;20080;-68
2022/08/02 06:00:14;;;;;;;14.18;4.60;;;;;;;;;;5002256;28;20119;-65
2022/08/02 06:02:49;;;;;;;10.43;5.03;;;;;;;;;;5002699;28;21172;-66
2022/08/02 06:05:19;;;;;;;14.50;4.60;;;;;;;;;;5002102;28;20064;-65
2022/08/02 06:07:46;;;;;;;11.57;5.03;;;;;;;;;;5001809;28;20049;-64
2022/08/02 06:10:13;;;;;;;12.88;5.40;;;;;;;;;;5000998;28;20160;-66
2022/08/02 06:12:48;;;;;;;13.07;5.43;;;;;;;;;;5001535;28;20050;-68
2022/08/02 06:15:15;;;;;;;;;;;;;;;;;;5004232;28;20060;-66
2022/08/02 06:17:42;;;;;;;14.15;5.90;;;;;;;;;;5001140;28;20451;-68
2022/08/02 06:20:09;;;;;;;10.85;5.72;;;;;;;;;;5001944;28;20573;-67
2022/08/02 06:22:39;;;;;;;12.40;6.20;;;;;;;;;;5017150;28;20112;-66
2022/08/02 06:25:05;;;;;;;17.05;6.35;;;;;;;;;;4996293;28;20053;-69
2022/08/02 06:27:32;;;;;;;14.63;6.50;;;;;;;;;;5002756;28;20148;-67
2022/08/02 06:30:00;;;;;;;17.33;6.88;;;;;;;;;;5001800;28;20042;-71
2022/08/02 06:32:26;;;;;;;11.13;5.95;;;;;;;;;;5000967;28;20058;-73
2022/08/02 06:34:52;;;;;;;20.45;7.03;;;;;;;;;;4999471;28;20061;-70
2022/08/02 06:37:35;;;;;;;15.48;6.22;;;;;;;;;;4996924;28;20425;-67
2022/08/02 06:40:08;;;;;;;15.60;5.32;;;;;;;;;;5001139;28;20057;-67
2022/08/02 06:42:57;;;;;;;18.15;5.13;;;;;;;;;;5001267;28;20049;-71
2022/08/02 06:45:23;;;;;;;11.00;5.10;;;;;;;;;;5008448;28;20488;-69
2022/08/02 06:47:49;;;;;;;12.02;5.13;;;;;;;;;;5008832;28;20095;-71
2022/08/02 06:50:14;;;;;;;14.75;4.75;;;;;;;;;;5007870;28;20053;-69
2022/08/02 06:52:40;;;;;;;14.23;4.95;;;;;;;;;;5003083;28;20045;-68
2022/08/02 06:55:07;;;;;;;14.80;4.35;;;;;;;;;;5003690;28;20725;-66
2022/08/02 06:57:33;;;;;;;9.00;3.53;;;;;;;;;;5008697;28;20046;-69
2022/08/02 07:00:05;;;;;;;14.40;4.20;;;;;;;;;;5008984;28;20061;-68
2022/08/02 07:02:31;;;;;;;14.45;4.20;;;;;;;;;;5007448;28;20093;-69
2022/08/02 07:04:58;;;;;;;10.98;4.03;;;;;;;;;;4992777;28;20106;-70
2022/08/02 07:07:25;;;;;;;10.05;4.18;;;;;;;;;;4999590;28;20491;-73
2022/08/02 07:09:51;;;;;;;11.38;4.38;;;;;;;;;;4997335;28;20045;-68
2022/08/02 07:12:17;;;;;;;10.50;3.97;;;;;;;;;;4999824;28;20693;-71
2022/08/02 07:14:43;;;;;;;11.07;4.15;;;;;;;;;;5001180;28;20057;-70
2022/08/02 07:17:09;;;;;;;10.15;3.80;;;;;;;;;;4999018;28;20058;-74
2022/08/02 07:19:35;;;;;;;10.18;4.13;;;;;;;;;;5004010;28;20440;-75
2022/08/02 07:22:01;;;;;;;10.32;3.42;;;;;;;;;;5007174;28;20061;-73
2022/08/02 07:24:26;;;;;;;10.60;4.13;;;;;;;;;;5008435;28;20050;-73
2022/08/02 07:26:52;;;;;;;13.60;4.07;;;;;;;;;;5006941;28;20041;-75
2022/08/02 07:29:18;;;;;;;12.60;3.78;;;;;;;;;;5006720;28;20054;-73
2022/08/02 07:31:44;;;;;;;12.50;4.20;;;;;;;;;;5009409;28;20052;-73
2022/08/02 07:34:09;;;;;;;13.60;4.15;;;;;;;;;;5006437;28;20042;-73
2022/08/02 07:36:36;;;;;;;11.73;3.67;;;;;;;;;;5002206;28;20495;-72
2022/08/02 07:39:02;;;;;;;9.93;4.18;;;;;;;;;;5003783;28;20077;-73
2022/08/02 07:41:29;;;;;;;9.88;4.13;;;;;;;;;;5005483;28;20345;-74
2022/08/02 07:43:55;;;;;;;17.60;4.70;;;;;;;;;;5005311;28;20046;-72
2022/08/02 07:46:20;;;;;;;13.77;4.18;;;;;;;;;;5005786;28;20058;-73
2022/08/02 07:48:52;;;;;;;11.00;4.10;;;;;;;;;;5007827;28;20462;-72
2022/08/02 07:51:18;;;;;;;13.25;4.38;;;;;;;;;;5006235;28;20495;-72
2022/08/02 07:53:44;;;;;;;14.00;4.43;;;;;;;;;;5006831;28;20044;-73
2022/08/02 07:56:09;;;;;;;11.20;4.47;;;;;;;;;;5009132;28;20049;-72
2022/08/02 07:58:35;;;;;;;11.27;4.72;;;;;;;;;;5007534;28;20034;-71
2022/08/02 08:01:01;;;;;;;14.45;4.72;;;;;;;;;;5002113;28;20046;-73
2022/08/02 08:03:27;;;;;;;15.82;4.95;;;;;;;;;;5001775;28;20077;-72
2022/08/02 08:05:54;;;;;;;26.33;5.30;;;;;;;;;;5017734;28;20411;-74
2022/08/02 08:08:20;;;;;;;13.02;4.20;;;;;;;;;;5005618;28;20322;-73
2022/08/02 08:10:46;;;;;;;17.73;4.78;;;;;;;;;;5006871;28;20439;-72
2022/08/02 08:13:12;;;;;;;11.55;4.97;;;;;;;;;;5005380;28;20050;-73
2022/08/02 08:15:38;;;;;;;12.05;4.38;;;;;;;;;;5010505;28;20106;-73
2022/08/02 08:18:04;;;;;;;14.95;4.70;;;;;;;;;;5006727;28;20061;-72
2022/08/02 08:20:30;;;;;;;19.33;5.18;;;;;;;;;;5007189;28;20129;-74
2022/08/02 08:22:55;;;;;;;13.32;4.85;;;;;;;;;;5018289;28;20112;-73
2022/08/02 08:25:21;;;;;;;16.38;4.38;;;;;;;;;;5007009;28;20042;-73
2022/08/02 08:27:48;;;;;;;8.07;4.00;;;;;;;;;;5007168;28;20073;-73
2022/08/02 08:30:15;;;;;;;10.20;4.18;;;;;;;;;;5006895;28;20100;-75
2022/08/02 08:32:41;;;;;;;12.77;3.83;;;;;;;;;;5006609;28;20077;-74
2022/08/02 08:35:07;;;;;;;13.10;3.90;;;;;;;;;;5006015;28;20056;-73
2022/08/02 08:37:37;;;;;;;13.18;3.92;;;;;;;;;;5007865;28;20497;-74
2022/08/02 08:40:07;;;;;;;14.77;3.63;;;;;;;;;;5022606;28;20058;-74
2022/08/02 08:42:38;;;;;;;9.38;3.35;;;;;;;;;;5007540;28;20517;-75
2022/08/02 08:45:04;;;;;;;9.70;3.50;;;;;;;;;;5007924;28;20050;-74
2022/08/02 08:47:59;;;;;;;9.57;3.35;;;;;;;;;;5007485;28;20050;-72
2022/08/02 08:50:25;;;;;;;8.57;3.20;;;;;;;;;;5005476;28;20064;-75
2022/08/02 08:53:07;;;;;;;8.88;3.10;;;;;;;;;;5007039;28;20038;-74
2022/08/02 08:55:36;;;;;;;6.60;3.10;;;;;;;;;;5007083;28;20053;-74
2022/08/02 08:58:03;;;;;;;11.70;3.53;;;;;;;;;;5007399;28;20080;-74
2022/08/02 09:00:30;;;;;;;9.68;3.58;;;;;;;;;;5006623;28;20553;-75
2022/08/02 09:02:57;;;;;;;8.77;2.97;;;;;;;;;;4999092;28;20054;-73
2022/08/02 09:05:24;;;;;;;5.45;2.60;;;;;;;;;;5006466;28;20472;-74
2022/08/02 09:07:51;;;;;;;8.20;2.83;;;;;;;;;;5006820;28;20054;-76
2022/08/02 09:10:38;;;;;;;9.55;3.45;;;;;;;;;;5006185;28;20133;-75
2022/08/02 09:13:28;;;;;;;5.65;3.00;;;;;;;;;;5009875;28;20124;-72
2022/08/02 09:16:00;;;;;;;9.45;2.90;;;;;;;;;;5005451;28;20050;-72
2022/08/02 09:18:33;;;;;;;8.75;3.00;;;;;;;;;;5006884;28;20428;-73
2022/08/02 09:21:09;;;;;;;9.57;2.97;;;;;;;;;;5006595;28;20042;-73
2022/08/02 09:23:37;;;;;;;7.95;2.97;;;;;;;;;;5006798;28;20418;-74
2022/08/02 09:26:08;;;;;;;7.35;2.55;;;;;;;;;;5006444;28;20276;-75
2022/08/02 09:28:37;;;;;;;11.55;3.00;;;;;;;;;;5006640;28;20053;-75
2022/08/02 09:31:14;;;;;;;12.20;3.10;;;;;;;;;;5004460;28;20108;-73
2022/08/02 09:33:43;;;;;;;10.52;3.30;;;;;;;;;;5006435;28;20072;-73
2022/08/02 09:36:13;;;;;;;13.25;3.17;;;;;;;;;;5001108;28;20518;-74
2022/08/02 09:38:51;;;;;;;10.25;3.03;;;;;;;;;;5008494;28;20395;-73
2022/08/02 09:41:39;;;;;;;9.02;3.50;;;;;;;;;;5009872;28;20041;-74
2022/08/02 09:44:07;;;;;;;10.13;3.58;;;;;;;;;;5009925;28;20061;-73
2022/08/02 09:46:39;;;;;;;11.57;4.15;;;;;;;;;;5010653;28;20041;-72
2022/08/02 09:49:12;;;;;;;10.70;3.75;;;;;;;;;;5010546;28;20042;-74
2022/08/02 09:51:47;;;;;;;12.57;3.85;;;;;;;;;;5010314;28;20054;-73
2022/08/02 09:54:24;;;;;;;12.18;3.78;;;;;;;;;;5010620;28;20056;-75
2022/08/02 09:56:52;;;;;;;8.98;4.28;;;;;;;;;;5009912;28;20081;-75
2022/08/02 09:59:20;;;;;;;15.38;3.70;;;;;;;;;;5010356;28;20046;-74
2022/08/02 10:01:48;;;;;;;13.13;3.78;;;;;;;;;;5010006;28;20042;-74
2022/08/02 10:04:14;;;;;;;10.23;3.63;;;;;;;;;;5017971;28;20048;-75
2022/08/02 10:06:43;;;;;;;13.73;3.75;;;;;;;;;;5009183;28;20046;-72
2022/08/02 10:09:11;;;;;;;7.43;3.65;;;;;;;;;;5008836;28;20037;-73
2022/08/02 10:11:37;;;;;;;8.02;3.38;;;;;;;;;;5008740;28;20057;-72
2022/08/02 10:14:05;;;;;;;9.82;3.30;;;;;;;;;;5008976;28;20504;-72
2022/08/02 10:16:39;;;;;;;8.07;3.40;;;;;;;;;;5011315;28;20188;-74
2022/08/02 10:19:05;;;;;;;6.85;3.42;;;;;;;;;;5008858;28;20050;-71
2022/08/02 10:21:44;;;;;;;8.60;3.30;;;;;;;;;;5009975;28;20081;-72
2022/08/02 10:24:14;;;;;;;8.98;3.42;;;;;;;;;;5007925;28;20129;-73
2022/08/02 10:26:43;;;;;;;9.98;2.72;;;;;;;;;;5008723;28;20057;-73
2022/08/02 10:29:10;;;;;;;7.93;3.33;;;;;;;;;;5008523;28;20046;-74
2022/08/02 10:31:42;;;;;;;5.55;2.70;;;;;;;;;;5007148;28;20060;-74
2022/08/02 10:34:11;;;;;;;7.65;2.72;;;;;;;;;;5009194;28;20046;-73
2022/08/02 10:36:39;;;;;;;8.10;3.05;;;;;;;;;;5008760;28;20062;-74
2022/08/02 10:39:06;;;;;;;5.93;2.80;;;;;;;;;;5014645;28;20069;-75
2022/08/02 10:41:58;;;;;;;7.03;2.80;;;;;;;;;;5006991;28;20589;-74
2022/08/02 10:44:28;;;;;;;8.82;2.55;;;;;;;;;;5008048;28;20116;-73
2022/08/02 10:47:12;;;;;;;5.43;2.20;;;;;;;;;;5008044;28;20050;-74
2022/08/02 10:49:53;;;;;;;4.63;2.38;;;;;;;;;;5009538;28;20139;-76
2022/08/02 10:52:21;;;;;;;4.35;2.03;;;;;;;;;;5008372;28;20049;-74
2022/08/02 10:54:56;;;;;;;2.97;1.90;;;;;;;;;;5008289;28;20053;-74
2022/08/02 10:57:27;;;;;;;4.93;2.08;;;;;;;;;;5006406;28;20109;-73
2022/08/02 11:00:01;;;;;;;5.93;2.30;;;;;;;;;;5002415;28;20078;-76
2022/08/02 11:02:53;;;;;;;6.65;2.15;;;;;;;;;;5002340;28;20100;-77
2022/08/02 11:05:33;;;;;;;3.85;2.05;;;;;;;;;;5008595;28;20154;-74
2022/08/02 11:08:17;;;;;;;7.72;2.20;;;;;;;;;;5010033;28;20483;-76
2022/08/02 11:10:43;;;;;;;3.85;2.30;;;;;;;;;;5009990;28;20492;-75
2022/08/02 11:13:13;;;;;;;6.10;2.20;;;;;;;;;;5018344;28;20053;-77
2022/08/02 11:16:03;;;;;;;3.67;2.28;;;;;;;;;;5008634;28;20046;-74
2022/08/02 11:18:48;;;;;;;5.50;1.98;;;;;;;;;;5008725;28;20071;-73
2022/08/02 11:21:23;;;;;;;5.15;2.45;;;;;;;;;;5009240;28;20069;-73
2022/08/02 11:23:50;;;;;;;6.40;2.80;;;;;;;;;;5008166;28;20138;-75
2022/08/02 11:26:31;;;;;;;8.90;2.97;;;;;;;;;;5012214;28;20498;-74
2022/08/02 11:29:04;;;;;;;4.47;2.42;;;;;;;;;;5010672;28;20042;-73
2022/08/02 11:31:39;;;;;;;6.55;2.20;;;;;;;;;;5009798;28;20053;-74
2022/08/02 11:34:05;;;;;;;3.55;2.17;;;;;;;;;;5010574;28;20244;-73
2022/08/02 11:36:31;;;;;;;3.55;2.20;;;;;;;;;;5009587;28;20060;-73
2022/08/02 11:39:22;;;;;;;3.85;2.25;;;;;;;;;;5015230;28;20239;-74
2022/08/02 11:41:56;;;;;;;3.85;2.17;;;;;;;;;;5002261;28;20052;-74
2022/08/02 11:44:23;;;;;;;7.35;2.45;;;;;;;;;;5011092;28;20089;-74
2022/08/02 11:47:00;;;;;;;5.70;2.60;;;;;;;;;;5009628;28;20050;-77
2022/08/02 11:49:26;;;;;;;7.07;2.42;;;;;;;;;;5009000;28;20495;-76
2022/08/02 11:52:03;;;;;;;8.77;2.60;;;;;;;;;;5007670;28;20431;-75
2022/08/02 11:54:39;;;;;;;8.88;2.60;;;;;;;;;;5004369;28;20042;-73
2022/08/02 11:57:15;;;;;;;12.55;2.53;;;;;;;;;;5007861;28;20046;-75
2022/08/02 11:59:43;;;;;;;5.35;2.40;;;;;;;;;;5008075;28;20100;-76
2022/08/02 12:02:10;;;;;;;3.95;2.20;;;;;;;;;;5007767;28;20056;-75
2022/08/02 12:04:37;;;;;;;5.68;2.33;;;;;;;;;;5008119;28;20492;-76
2022/08/02 12:07:04;;;;;;;4.97;2.72;;;;;;;;;;5007413;28;20050;-74
2022/08/02 12:09:32;;;;;;;4.95;2.40;;;;;;;;;;5008162;28;20129;-75
2022/08/02 12:11:59;;;;;;;5.13;2.53;;;;;;;;;;5007842;28;20443;-75
2022/08/02 12:14:26;;;;;;;7.88;2.45;;;;;;;;;;5009884;28;20045;-78
2022/08/02 12:19:38;;;;;;;5.18;2.47;;;;;;;;;;5008749;28;20101;-74
2022/08/02 12:22:13;;;;;;;9.93;2.63;;;;;;;;;;5007361;28;20054;-74
2022/08/02 12:24:41;;;;;;;5.75;2.50;;;;;;;;;;5007413;28;20042;-77
2022/08/02 12:27:07;;;;;;;5.97;2.20;;;;;;;;;;5007399;28;20050;-74
2022/08/02 12:29:38;;;;;;;5.35;2.60;;;;;;;;;;5008175;28;20052;-74
2022/08/02 12:32:05;;;;;;;4.80;2.25;;;;;;;;;;5007772;28;20053;-75
2022/08/02 12:34:34;;;;;;;6.53;2.50;;;;;;;;;;5007399;28;20050;-78
2022/08/02 12:37:03;;;;;;;5.38;2.33;;;;;;;;;;5009969;28;20045;-73
2022/08/02 12:39:48;;;;;;;5.38;2.38;;;;;;;;;;5008167;28;20099;-75
2022/08/02 12:42:14;;;;;;;4.25;2.25;;;;;;;;;;4999722;28;20062;-75
2022/08/02 12:45:00;;;;;;;4.97;2.30;;;;;;;;;;5008589;28;20399;-76
2022/08/02 12:47:26;;;;;;;6.28;2.63;;;;;;;;;;4987201;28;20046;-74
2022/08/02 12:50:15;;;;;;;8.48;2.53;;;;;;;;;;5002123;28;20395;-73
2022/08/02 12:52:42;;;;;;;4.45;2.50;;;;;;;;;;5009027;28;20042;-77
2022/08/02 12:55:22;;;;;;;3.58;2.50;;;;;;;;;;5003923;28;20085;-75
2022/08/02 12:58:03;;;;;;;5.82;2.33;;;;;;;;;;5013713;28;20045;-76
2022/08/02 13:00:38;;;;;;;4.95;2.50;;;;;;;;;;5007453;28;20415;-78
2022/08/02 13:03:06;;;;;;;6.80;2.20;;;;;;;;;;5006711;28;20384;-74
2022/08/02 13:05:34;;;;;;;4.15;2.17;;;;;;;;;;5007107;28;20256;-75
2022/08/02 13:08:01;;;;;;;9.57;2.17;;;;;;;;;;5006927;28;20112;-76
2022/08/02 13:10:27;;;;;;;4.28;1.98;;;;;;;;;;5014265;28;20049;-75
2022/08/02 13:12:53;;;;;;;6.03;2.00;;;;;;;;;;5009807;28;20415;-75
2022/08/02 13:15:20;;;;;;;7.90;2.08;;;;;;;;;;5010528;28;20049;-74
2022/08/02 13:17:47;;;;;;;7.30;2.30;;;;;;;;;;5008659;28;20038;-75
2022/08/02 13:20:13;;;;;;;5.82;2.33;;;;;;;;;;5010033;28;20050;-74
2022/08/02 13:22:40;;;;;;;4.30;1.98;;;;;;;;;;5010064;28;20403;-74
2022/08/02 13:25:07;;;;;;;9.07;2.60;;;;;;;;;;5009218;28;20046;-75
2022/08/02 13:27:34;;;;;;;4.80;2.00;;;;;;;;;;5014138;28;20072;-74
2022/08/02 13:30:00;;;;;;;5.85;2.03;;;;;;;;;;5006928;28;20129;-76
2022/08/02 13:32:27;;;;;;;5.78;1.95;;;;;;;;;;5009320;28;20056;-75
2022/08/02 13:34:55;;;;;;;4.03;1.90;;;;;;;;;;5009875;28;20038;-75
2022/08/02 13:37:21;;;;;;;3.35;2.10;;;;;;;;;;5009395;28;20488;-75
2022/08/02 13:39:47;;;;;;;4.25;1.92;;;;;;;;;;5009467;28;20049;-75
2022/08/02 13:42:13;;;;;;;2.63;1.50;;;;;;;;;;5009764;28;20053;-75
2022/08/02 13:44:39;;;;;;;7.03;1.60;;;;;;;;;;5013112;28;20045;-76
2022/08/02 13:47:05;;;;;;;10.32;1.80;;;;;;;;;;5009526;28;20522;-77
2022/08/02 13:49:31;;;;;;;5.80;1.80;;;;;;;;;;5010598;28;20076;-75
2022/08/02 13:51:56;;;;;;;4.07;1.50;;;;;;;;;;5010351;28;20050;-75
2022/08/02 13:54:22;;;;;;;5.15;1.50;;;;;;;;;;5010665;28;20073;-77
2022/08/02 13:56:48;;;;;;;5.57;1.65;;;;;;;;;;5011789;28;20069;-76
2022/08/02 13:59:14;;;;;;;4.05;1.45;;;;;;;;;;5007760;28;20034;-78
2022/08/02 14:01:40;;;;;;;3.20;1.67;;;;;;;;;;5000601;28;20088;-76
2022/08/02 14:04:06;;;;;;;3.20;1.33;;;;;;;;;;5000594;28;20504;-76
2022/08/02 14:06:32;;;;;;;5.28;1.40;;;;;;;;;;5012018;28;20050;-79
2022/08/02 14:08:58;;;;;;;6.38;1.33;;;;;;;;;;5011918;28;20250;-76
2022/08/02 14:11:25;;;;;;;5.93;1.60;;;;;;;;;;5012571;28;20133;-76
2022/08/02 14:13:50;;;;;;;7.90;1.50;;;;;;;;;;4994913;28;20042;-77
2022/08/02 14:16:16;;;;;;;6.55;1.42;;;;;;;;;;5012046;28;20077;-75
2022/08/02 14:18:42;;;;;;;6.35;1.50;;;;;;;;;;5011705;28;20529;-75
2022/08/02 14:21:08;;;;;;;7.35;1.60;;;;;;;;;;5007837;28;20385;-76
2022/08/02 14:23:34;;;;;;;5.53;1.52;;;;;;;;;;5010120;28;20053;-76
2022/08/02 14:25:59;;;;;;;4.57;1.42;;;;;;;;;;5010636;28;20042;-75
2022/08/02 14:28:25;;;;;;;4.18;1.50;;;;;;;;;;5013485;28;20137;-75
2022/08/02 14:30:51;;;;;;;2.95;1.23;;;;;;;;;;5012859;28;20388;-76
2022/08/02 14:33:17;;;;;;;5.35;1.63;;;;;;;;;;5010917;28;20042;-77
2022/08/02 14:35:43;;;;;;;4.88;1.65;;;;;;;;;;5019410;28;20061;-76
2022/08/02 14:38:09;;;;;;;5.43;1.40;;;;;;;;;;5011489;28;20046;-79
2022/08/02 14:40:35;;;;;;;3.83;1.52;;;;;;;;;;5010826;28;20068;-76
2022/08/02 14:43:02;;;;;;;3.13;1.33;;;;;;;;;;5009489;28;20057;-74
2022/08/02 14:45:29;;;;;;;7.40;1.58;;;;;;;;;;5009631;28;20088;-76
2022/08/02 14:47:55;;;;;;;4.55;1.48;;;;;;;;;;5009828;28;20086;-76
2022/08/02 14:50:22;;;;;;;8.20;1.83;;;;;;;;;;5016696;28;20057;-76
2022/08/02 14:52:49;;;;;;;10.95;1.95;;;;;;;;;;5014801;28;20045;-78
2022/08/02 14:55:15;;;;;;;6.93;1.70;;;;;;;;;;5015695;28;20053;-75